Time;durP1;ratioP1;P1;durP2;ratioP2;P2;SDS_P1;SDS_P2;PMS_P1;PMS_P2;Temp;Humidity;BMP_temperature;BMP_pressure;BME280_temperature;BME280_humidity;BME280_pressure;Samples;Min_cycle;Max_cycle;Signal;HPM_P1;HPM_P2
2023/06/21 00:01:30;;;;;;;10.68;9.60;;;20.60;99.90;;;;;;5080579;28;20391;-84
2023/06/21 00:03:57;;;;;;;10.25;9.25;;;20.60;99.90;;;;;;5082015;28;20407;-84
2023/06/21 00:06:23;;;;;;;10.87;9.87;;;20.40;99.90;;;;;;5079053;28;20410;-83
2023/06/21 00:08:49;;;;;;;11.30;10.20;;;20.40;99.90;;;;;;5080150;28;20404;-84
2023/06/21 00:11:15;;;;;;;12.10;10.00;;;20.40;99.90;;;;;;5082318;28;20392;-83
2023/06/21 00:13:40;;;;;;;10.90;9.80;;;20.30;99.90;;;;;;5072812;28;20400;-83
2023/06/21 00:16:06;;;;;;;11.57;9.97;;;20.30;99.90;;;;;;5080345;28;20399;-84
2023/06/21 00:18:31;;;;;;;12.15;9.48;;;20.30;99.90;;;;;;5083577;28;20397;-83
2023/06/21 00:20:59;;;;;;;10.43;9.33;;;20.30;99.90;;;;;;5084682;28;20380;-84
2023/06/21 00:23:25;;;;;;;10.90;9.50;;;20.20;99.90;;;;;;5071865;28;20437;-83
2023/06/21 00:25:50;;;;;;;10.70;9.60;;;20.20;99.90;;;;;;5093737;28;20396;-83
2023/06/21 00:28:16;;;;;;;10.20;9.20;;;20.20;99.90;;;;;;5085626;28;20404;-83
2023/06/21 00:30:42;;;;;;;12.30;10.40;;;20.10;99.90;;;;;;5069107;28;20413;-83
2023/06/21 00:33:07;;;;;;;12.03;9.43;;;20.10;99.90;;;;;;5085160;28;20395;-83
2023/06/21 00:35:32;;;;;;;12.60;9.90;;;20.30;99.90;;;;;;5085190;28;20376;-83
2023/06/21 00:37:58;;;;;;;13.53;9.70;;;20.20;99.90;;;;;;5088761;28;20376;-83
2023/06/21 00:40:25;;;;;;;10.77;9.77;;;20.20;99.90;;;;;;5083780;28;20383;-83
2023/06/21 00:42:54;;;;;;;10.35;9.25;;;20.20;99.90;;;;;;5084351;28;20444;-83
2023/06/21 00:45:20;;;;;;;12.55;9.30;;;20.10;99.90;;;;;;5084395;28;20400;-83
2023/06/21 00:47:46;;;;;;;10.20;9.40;;;20.20;99.90;;;;;;5084910;28;20761;-84
2023/06/21 00:50:12;;;;;;;9.43;8.55;;;20.20;99.90;;;;;;5084430;28;20431;-84
2023/06/21 00:52:42;;;;;;;10.73;9.30;;;20.30;99.90;;;;;;5082961;28;20408;-83
2023/06/21 00:55:08;;;;;;;11.45;9.32;;;20.40;99.90;;;;;;5082978;28;20483;-83
2023/06/21 00:57:34;;;;;;;10.27;9.15;;;20.40;99.90;;;;;;5081584;28;20372;-84
2023/06/21 01:00:00;;;;;;;9.60;8.70;;;20.40;99.90;;;;;;5083183;28;20820;-83
2023/06/21 01:02:26;;;;;;;10.45;9.45;;;20.40;99.90;;;;;;5075284;28;20411;-84
2023/06/21 01:04:52;;;;;;;9.07;8.27;;;20.40;99.90;;;;;;5062501;28;20389;-83
2023/06/21 01:07:47;;;;;;;9.90;8.90;;;20.40;99.90;;;;;;5062827;28;20425;-83
2023/06/21 01:10:53;;;;;;;9.30;8.48;;;20.30;99.90;;;;;;5063119;28;20485;-82
2023/06/21 01:13:35;;;;;;;11.43;9.30;;;20.30;99.90;;;;;;5081903;28;20461;-83
2023/06/21 01:16:15;;;;;;;9.93;8.93;;;20.40;99.90;;;;;;5081005;28;20447;-83
2023/06/21 01:18:45;;;;;;;9.80;8.80;;;20.50;99.90;;;;;;5079147;28;20422;-83
2023/06/21 01:21:18;;;;;;;9.55;8.55;;;20.30;99.90;;;;;;5081022;28;20392;-83
2023/06/21 01:24:03;;;;;;;9.50;8.65;;;20.40;99.90;;;;;;5089446;28;20384;-83
2023/06/21 01:26:54;;;;;;;10.73;9.50;;;20.50;99.90;;;;;;5090347;28;20454;-83
2023/06/21 01:29:27;;;;;;;11.52;9.13;;;20.60;99.90;;;;;;5084951;28;20424;-84
2023/06/21 01:31:55;;;;;;;10.55;9.30;;;20.60;99.90;;;;;;5078947;28;20387;-83
2023/06/21 01:34:22;;;;;;;11.77;9.00;;;20.60;99.90;;;;;;5084052;28;21044;-83
2023/06/21 01:36:48;;;;;;;9.57;8.40;;;20.60;99.90;;;;;;5081883;28;20391;-84
2023/06/21 01:39:15;;;;;;;9.60;8.80;;;20.60;99.90;;;;;;5074192;28;20388;-83
2023/06/21 01:41:40;;;;;;;9.70;8.48;;;20.50;99.90;;;;;;5083673;28;20395;-83
2023/06/21 01:44:12;;;;;;;9.65;8.73;;;20.50;99.90;;;;;;5081886;28;20384;-83
2023/06/21 01:46:39;;;;;;;10.00;9.00;;;20.50;99.90;;;;;;5083000;28;20387;-83
2023/06/21 01:49:07;;;;;;;10.07;9.07;;;20.40;99.90;;;;;;5080497;28;20842;-83
2023/06/21 01:51:38;;;;;;;10.00;9.10;;;20.40;99.90;;;;;;5082629;28;20384;-84
2023/06/21 01:54:04;;;;;;;9.53;8.53;;;20.40;99.90;;;;;;5080743;28;20396;-85
2023/06/21 01:56:30;;;;;;;10.35;9.25;;;20.30;99.90;;;;;;5077681;28;20443;-83
2023/06/21 01:58:56;;;;;;;9.83;8.73;;;20.70;99.90;;;;;;5080145;28;20762;-83
2023/06/21 02:01:26;;;;;;;10.40;9.30;;;20.20;99.90;;;;;;5076632;28;20395;-84
2023/06/21 02:03:54;;;;;;;10.10;9.20;;;20.10;99.90;;;;;;5067642;28;20401;-83
2023/06/21 02:06:21;;;;;;;10.23;9.32;;;20.10;99.90;;;;;;5081700;28;20546;-83
2023/06/21 02:08:51;;;;;;;12.70;9.40;;;20.00;99.90;;;;;;5073484;28;20756;-83
2023/06/21 02:11:18;;;;;;;11.67;8.83;;;19.90;99.90;;;;;;5077190;28;20395;-84
2023/06/21 02:13:48;;;;;;;10.07;9.07;;;20.00;99.90;;;;;;5078741;28;20483;-83
2023/06/21 02:16:14;;;;;;;10.57;9.48;;;20.00;99.90;;;;;;5081933;28;20390;-83
2023/06/21 02:18:40;;;;;;;11.10;9.85;;;19.90;99.90;;;;;;5082168;28;20395;-83
2023/06/21 02:21:06;;;;;;;10.65;9.60;;;19.90;99.90;;;;;;5079708;28;20482;-84
2023/06/21 02:23:32;;;;;;;10.85;9.57;;;20.10;99.90;;;;;;5079149;28;20423;-83
2023/06/21 02:25:57;;;;;;;12.90;9.70;;;20.00;99.90;;;;;;5077856;28;21129;-84
2023/06/21 02:28:23;;;;;;;12.07;9.52;;;20.00;99.90;;;;;;5082721;28;20498;-84
2023/06/21 02:30:48;;;;;;;10.30;9.27;;;19.90;99.90;;;;;;5094173;28;20392;-84
2023/06/21 02:33:14;;;;;;;10.60;9.50;;;19.90;99.90;;;;;;5085826;28;20383;-83
2023/06/21 02:35:39;;;;;;;10.10;8.93;;;19.80;99.90;;;;;;5067247;28;20442;-84
2023/06/21 02:38:05;;;;;;;10.60;9.50;;;19.80;99.90;;;;;;5083640;28;20396;-83
2023/06/21 02:40:31;;;;;;;10.23;9.13;;;19.80;99.90;;;;;;5086576;28;20469;-84
2023/06/21 02:42:56;;;;;;;14.30;10.00;;;19.80;99.90;;;;;;5085376;28;20413;-83
2023/06/21 02:45:22;;;;;;;10.47;9.37;;;19.80;99.90;;;;;;5086770;28;20391;-83
2023/06/21 02:47:47;;;;;;;11.10;10.00;;;19.90;99.90;;;;;;5086846;28;20753;-83
2023/06/21 02:50:15;;;;;;;10.20;9.13;;;19.90;99.90;;;;;;5086496;28;20443;-84
2023/06/21 02:52:40;;;;;;;10.70;9.60;;;19.90;99.90;;;;;;5085716;28;20425;-83
2023/06/21 02:55:07;;;;;;;11.50;9.48;;;20.20;99.90;;;;;;5085094;28;20461;-84
2023/06/21 02:57:33;;;;;;;11.02;9.82;;;20.10;99.90;;;;;;5083150;28;20392;-84
2023/06/21 02:59:59;;;;;;;11.05;9.50;;;20.00;99.90;;;;;;5084343;28;20459;-83
2023/06/21 03:02:34;;;;;;;10.30;9.38;;;19.90;99.90;;;;;;5084284;28;20396;-84
2023/06/21 03:05:00;;;;;;;11.13;9.73;;;19.90;99.90;;;;;;5083331;28;20852;-84
2023/06/21 03:07:28;;;;;;;10.38;9.38;;;19.90;99.90;;;;;;5083647;28;20383;-83
2023/06/21 03:09:55;;;;;;;10.35;9.27;;;20.10;99.90;;;;;;5083708;28;20426;-84
2023/06/21 03:12:20;;;;;;;13.60;10.27;;;20.00;99.90;;;;;;5084300;28;20422;-83
2023/06/21 03:14:46;;;;;;;9.83;9.03;;;20.00;99.90;;;;;;5086626;28;20376;-83
2023/06/21 03:17:11;;;;;;;10.60;9.60;;;19.90;99.90;;;;;;5085089;28;20451;-84
2023/06/21 03:19:37;;;;;;;10.20;9.30;;;19.90;99.90;;;;;;5086202;28;20426;-84
2023/06/21 03:22:03;;;;;;;11.60;10.25;;;19.80;99.90;;;;;;5084037;28;20459;-84
2023/06/21 03:24:32;;;;;;;11.70;9.70;;;19.80;99.90;;;;;;5083591;28;20404;-84
2023/06/21 03:27:02;;;;;;;11.75;9.38;;;19.80;99.90;;;;;;5083471;28;20400;-84
2023/06/21 03:29:28;;;;;;;11.25;10.05;;;19.80;99.90;;;;;;5086157;28;20400;-83
2023/06/21 03:31:53;;;;;;;11.27;9.50;;;19.90;99.90;;;;;;5086161;28;20449;-83
2023/06/21 03:34:19;;;;;;;9.90;9.10;;;19.90;99.90;;;;;;5088617;28;20391;-84
2023/06/21 03:36:44;;;;;;;10.00;9.10;;;19.90;99.90;;;;;;5085480;28;20734;-84
2023/06/21 03:39:10;;;;;;;10.60;9.60;;;19.90;99.90;;;;;;5088038;28;20388;-84
2023/06/21 03:41:35;;;;;;;12.10;10.03;;;19.90;99.90;;;;;;5086675;28;20392;-84
2023/06/21 03:44:01;;;;;;;11.40;10.40;;;19.80;99.90;;;;;;5086316;28;20403;-84
2023/06/21 03:46:26;;;;;;;11.70;9.90;;;19.60;99.90;;;;;;5087785;28;20395;-84
2023/06/21 03:48:53;;;;;;;11.10;9.83;;;19.50;99.90;;;;;;5086480;28;20411;-84
2023/06/21 03:51:19;;;;;;;10.65;9.55;;;19.60;99.90;;;;;;5085796;28;20384;-84
2023/06/21 03:53:44;;;;;;;12.30;10.80;;;19.50;99.90;;;;;;5087568;28;20395;-84
2023/06/21 03:56:10;;;;;;;11.10;10.20;;;19.60;99.90;;;;;;5085363;28;20435;-84
2023/06/21 03:58:35;;;;;;;12.00;10.90;;;19.70;99.90;;;;;;5085982;28;20727;-83
2023/06/21 04:01:02;;;;;;;12.07;10.88;;;19.60;99.90;;;;;;5089808;28;20387;-83
2023/06/21 04:03:27;;;;;;;12.07;10.88;;;19.50;99.90;;;;;;5094849;28;20410;-84
2023/06/21 04:05:53;;;;;;;12.40;11.13;;;19.50;99.90;;;;;;5086071;28;20383;-83
2023/06/21 04:08:19;;;;;;;13.25;11.88;;;19.50;99.90;;;;;;5085764;28;20455;-83
2023/06/21 04:10:44;;;;;;;13.33;10.90;;;19.60;99.90;;;;;;5083917;28;20390;-83
2023/06/21 04:13:10;;;;;;;12.60;11.13;;;19.60;99.90;;;;;;5070990;28;20393;-84
2023/06/21 04:15:35;;;;;;;11.77;10.77;;;19.60;99.90;;;;;;5064532;28;20397;-83
2023/06/21 04:18:01;;;;;;;12.23;10.70;;;19.70;99.90;;;;;;5066181;28;20382;-83
2023/06/21 04:20:26;;;;;;;14.17;10.87;;;19.80;99.90;;;;;;5065128;28;20389;-83
2023/06/21 04:22:52;;;;;;;12.82;11.50;;;19.70;99.90;;;;;;5067138;28;20386;-84
2023/06/21 04:25:18;;;;;;;11.73;10.00;;;19.80;99.90;;;;;;5064531;28;20908;-83
2023/06/21 04:27:47;;;;;;;11.88;10.38;;;19.90;99.90;;;;;;5064330;28;20385;-84
2023/06/21 04:30:12;;;;;;;11.40;10.25;;;20.00;99.90;;;;;;5065825;28;20994;-83
2023/06/21 04:32:44;;;;;;;11.55;10.35;;;20.00;99.90;;;;;;5064916;28;20393;-84
2023/06/21 04:35:14;;;;;;;12.32;10.10;;;20.10;99.90;;;;;;5063488;28;20476;-84
2023/06/21 04:37:45;;;;;;;12.00;10.43;;;20.10;99.90;;;;;;5069841;28;20475;-84
2023/06/21 04:40:17;;;;;;;12.55;10.60;;;20.10;99.90;;;;;;5082963;28;20386;-84
2023/06/21 04:42:45;;;;;;;11.30;10.10;;;20.10;99.90;;;;;;5083806;28;20391;-83
2023/06/21 04:45:14;;;;;;;10.80;9.70;;;20.20;99.90;;;;;;5090881;28;20392;-84
2023/06/21 04:47:46;;;;;;;11.65;10.55;;;20.20;99.90;;;;;;5077822;28;20393;-84
2023/06/21 04:50:12;;;;;;;11.77;10.77;;;20.20;99.90;;;;;;5065307;28;20402;-84
2023/06/21 04:52:37;;;;;;;10.30;9.30;;;20.20;99.90;;;;;;5062592;28;20417;-84
2023/06/21 04:55:07;;;;;;;10.55;9.60;;;20.20;99.90;;;;;;5078839;28;20453;-84
2023/06/21 04:57:34;;;;;;;14.30;9.90;;;20.40;99.90;;;;;;5084951;28;20475;-83
2023/06/21 05:00:06;;;;;;;13.45;10.30;;;20.50;99.90;;;;;;5087125;28;20430;-84
2023/06/21 05:02:31;;;;;;;10.85;9.85;;;20.80;99.90;;;;;;5080995;28;20391;-84
2023/06/21 05:04:57;;;;;;;12.77;10.50;;;20.50;99.90;;;;;;5097762;28;20461;-85
2023/06/21 05:07:23;;;;;;;11.10;10.00;;;20.50;99.90;;;;;;5077074;28;20804;-84
2023/06/21 05:09:48;;;;;;;12.03;10.73;;;20.60;99.90;;;;;;5082311;28;20412;-84
2023/06/21 05:12:14;;;;;;;14.00;10.90;;;20.60;99.90;;;;;;5081026;28;20388;-84
2023/06/21 05:14:39;;;;;;;12.60;10.60;;;20.50;99.90;;;;;;5075290;28;20407;-84
2023/06/21 05:17:05;;;;;;;13.23;10.35;;;20.80;99.90;;;;;;5072081;28;20449;-84
2023/06/21 05:19:31;;;;;;;11.45;10.25;;;20.70;99.90;;;;;;5075887;28;20442;-84
2023/06/21 05:21:56;;;;;;;11.50;10.30;;;20.80;99.90;;;;;;5071967;28;20448;-84
2023/06/21 05:24:22;;;;;;;11.32;10.23;;;20.90;99.90;;;;;;5073989;28;20392;-84
2023/06/21 05:26:47;;;;;;;11.80;10.20;;;20.90;99.90;;;;;;5078791;28;20727;-84
2023/06/21 05:29:13;;;;;;;12.50;11.30;;;21.00;99.90;;;;;;5076970;28;20782;-84
2023/06/21 05:31:42;;;;;;;11.70;10.50;;;21.00;99.90;;;;;;5066106;28;20483;-84
2023/06/21 05:34:08;;;;;;;12.07;10.30;;;21.70;99.90;;;;;;5066622;28;20442;-86
2023/06/21 05:36:34;;;;;;;11.23;10.02;;;21.30;99.90;;;;;;5067813;28;20405;-82
2023/06/21 05:38:59;;;;;;;11.60;10.23;;;21.40;99.90;;;;;;5119601;22;20518;-82
2023/06/21 05:41:25;;;;;;;11.57;10.47;;;21.40;99.90;;;;;;5083328;28;20383;-82
2023/06/21 05:43:51;;;;;;;10.20;9.20;;;21.40;99.90;;;;;;5090176;28;20505;-82
2023/06/21 05:46:16;;;;;;;12.25;10.73;;;21.50;99.90;;;;;;5087184;28;20376;-80
2023/06/21 05:48:42;;;;;;;11.00;10.10;;;21.80;99.90;;;;;;5090356;28;20416;-80
2023/06/21 05:51:08;;;;;;;12.18;10.98;;;23.00;99.90;;;;;;5085611;28;20885;-81
2023/06/21 05:53:33;;;;;;;15.00;13.50;;;22.00;99.90;;;;;;5071657;28;20414;-82
2023/06/21 05:55:59;;;;;;;14.07;12.63;;;21.90;99.90;;;;;;5069353;28;20465;-83
2023/06/21 05:58:25;;;;;;;15.50;13.52;;;21.70;99.90;;;;;;5069798;28;20920;-83
2023/06/21 06:00:51;;;;;;;15.52;14.02;;;21.70;99.90;;;;;;5070836;28;20427;-83
2023/06/21 06:03:16;;;;;;;15.47;13.77;;;21.60;99.90;;;;;;5069489;28;20928;-85
2023/06/21 06:05:43;;;;;;;14.02;12.73;;;21.70;99.90;;;;;;5070518;28;20396;-84
2023/06/21 06:08:09;;;;;;;14.63;13.13;;;21.60;99.90;;;;;;5069239;28;20477;-85
2023/06/21 06:10:35;;;;;;;13.90;12.60;;;22.30;99.90;;;;;;5068842;28;20388;-83
2023/06/21 06:13:00;;;;;;;14.45;12.95;;;21.70;99.90;;;;;;5071275;28;20391;-83
2023/06/21 06:15:26;;;;;;;14.80;13.50;;;21.50;99.90;;;;;;5069632;28;20407;-84
2023/06/21 06:17:52;;;;;;;15.03;13.53;;;21.70;99.90;;;;;;5070018;28;20449;-83
2023/06/21 06:20:17;;;;;;;15.77;14.18;;;21.80;99.90;;;;;;5072178;28;20391;-83
2023/06/21 06:22:43;;;;;;;15.03;13.40;;;21.80;99.90;;;;;;5072028;28;20946;-85
2023/06/21 06:25:09;;;;;;;14.60;13.20;;;21.80;99.90;;;;;;5074160;28;20895;-84
2023/06/21 06:27:35;;;;;;;14.80;13.20;;;21.80;99.90;;;;;;5073023;28;20384;-84
2023/06/21 06:30:02;;;;;;;13.93;12.60;;;21.70;99.90;;;;;;5073044;28;20399;-83
2023/06/21 06:32:28;;;;;;;13.77;12.48;;;22.00;99.90;;;;;;5074247;28;20399;-84
2023/06/21 06:34:53;;;;;;;13.40;12.00;;;23.20;99.90;;;;;;5079728;28;20391;-83
2023/06/21 06:37:19;;;;;;;13.68;11.75;;;22.10;99.90;;;;;;5090109;28;20391;-85
2023/06/21 06:39:44;;;;;;;13.50;12.10;;;22.20;99.90;;;;;;5074618;28;20913;-86
2023/06/21 06:42:10;;;;;;;15.70;12.95;;;22.10;99.90;;;;;;5075557;28;20498;-85
2023/06/21 06:44:37;;;;;;;13.80;12.40;;;22.20;99.90;;;;;;5075823;28;20889;-85
2023/06/21 06:47:02;;;;;;;13.73;12.27;;;22.20;99.90;;;;;;5075323;28;20940;-86
2023/06/21 06:49:28;;;;;;;14.00;12.60;;;22.20;99.90;;;;;;5091944;28;20406;-85
2023/06/21 06:51:53;;;;;;;14.85;12.35;;;22.10;99.90;;;;;;5092255;28;20418;-85
2023/06/21 06:54:19;;;;;;;17.23;13.30;;;22.00;99.90;;;;;;5092421;28;20391;-84
2023/06/21 06:56:45;;;;;;;16.02;14.40;;;21.40;99.90;;;;;;5093736;28;20432;-86
2023/06/21 06:59:10;;;;;;;18.80;15.88;;;21.10;99.90;;;;;;5082408;28;20388;-85
2023/06/21 07:01:36;;;;;;;18.43;16.63;;;19.80;99.90;;;;;;5069928;28;20383;-87
2023/06/21 07:04:01;;;;;;;16.93;15.33;;;20.20;99.90;;;;;;5068874;28;20395;-85
2023/06/21 07:06:27;;;;;;;18.40;16.50;;;20.10;99.90;;;;;;5069242;28;20390;-86
2023/06/21 07:08:53;;;;;;;20.90;18.80;;;20.10;99.90;;;;;;5068546;28;20949;-88
2023/06/21 07:11:18;;;;;;;18.27;16.40;;;19.70;99.90;;;;;;5069703;28;20404;-88
2023/06/21 07:13:44;;;;;;;17.88;16.10;;;19.90;99.90;;;;;;5070177;28;20930;-85
2023/06/21 07:16:10;;;;;;;19.52;17.52;;;18.70;99.90;;;;;;5070241;28;20375;-85
2023/06/21 07:18:35;;;;;;;18.57;16.67;;;19.90;99.90;;;;;;5074053;28;20376;-85
2023/06/21 07:21:02;;;;;;;18.23;16.23;;;20.20;99.90;;;;;;5075037;28;20449;-85
2023/06/21 07:23:29;;;;;;;18.27;16.48;;;19.70;99.90;;;;;;5092579;28;20381;-82
2023/06/21 07:25:55;;;;;;;14.75;13.35;;;19.60;99.90;;;;;;5097712;28;20399;-82
2023/06/21 07:28:21;;;;;;;16.27;14.63;;;19.50;99.90;;;;;;5093784;28;20402;-82
2023/06/21 07:30:46;;;;;;;15.80;14.20;;;19.50;99.90;;;;;;5075273;28;20486;-83
2023/06/21 07:33:12;;;;;;;17.08;15.38;;;19.80;99.90;;;;;;5074670;28;20395;-84
2023/06/21 07:35:37;;;;;;;17.30;15.70;;;19.40;99.90;;;;;;5071969;28;20399;-84
2023/06/21 07:38:05;;;;;;;14.30;13.00;;;20.10;99.90;;;;;;5073671;28;20414;-84
2023/06/21 07:40:31;;;;;;;9.18;8.38;;;19.40;99.90;;;;;;5078382;28;20498;-86
2023/06/21 07:42:57;;;;;;;9.27;8.38;;;19.40;99.90;;;;;;5075244;28;20429;-85
2023/06/21 07:45:23;;;;;;;11.07;9.23;;;19.30;99.90;;;;;;5069547;28;20380;-85
2023/06/21 07:47:48;;;;;;;9.70;8.73;;;19.30;99.90;;;;;;5077168;28;20380;-85
2023/06/21 07:50:14;;;;;;;9.95;8.60;;;19.40;99.90;;;;;;5075818;28;20731;-86
2023/06/21 07:52:39;;;;;;;9.30;7.97;;;20.10;99.90;;;;;;5078076;28;20384;-85
2023/06/21 07:55:09;;;;;;;9.98;7.32;;;19.40;99.90;;;;;;5077567;28;20862;-85
2023/06/21 07:57:34;;;;;;;8.50;7.70;;;19.40;99.90;;;;;;5075742;28;20791;-85
2023/06/21 08:00:08;;;;;;;7.80;7.10;;;19.50;99.90;;;;;;5074754;28;20391;-85
2023/06/21 08:02:35;;;;;;;7.40;6.70;;;19.40;99.90;;;;;;5078491;28;20423;-86
2023/06/21 08:05:00;;;;;;;8.40;7.60;;;19.40;99.90;;;;;;5078547;28;21138;-85
2023/06/21 08:07:26;;;;;;;8.60;7.70;;;19.40;99.90;;;;;;5079251;28;20403;-86
2023/06/21 08:09:51;;;;;;;7.53;6.83;;;21.40;99.90;;;;;;5075731;28;20502;-86
2023/06/21 08:12:17;;;;;;;8.63;7.82;;;19.30;99.90;;;;;;5074060;28;20451;-85
2023/06/21 08:14:42;;;;;;;8.80;7.90;;;18.60;99.90;;;;;;5074075;28;20392;-86
2023/06/21 08:17:08;;;;;;;10.02;7.63;;;19.70;99.90;;;;;;5071486;28;20399;-85
2023/06/21 08:19:33;;;;;;;8.40;7.60;;;19.40;99.90;;;;;;5069436;28;20533;-85
2023/06/21 08:21:59;;;;;;;9.95;8.90;;;19.40;99.90;;;;;;5072990;28;20433;-86
2023/06/21 08:24:27;;;;;;;10.13;9.13;;;19.50;99.90;;;;;;5074518;28;20399;-85
2023/06/21 08:26:52;;;;;;;10.40;9.50;;;19.60;99.90;;;;;;5071785;28;20774;-86
2023/06/21 08:29:18;;;;;;;10.50;9.35;;;19.60;99.90;;;;;;5073781;28;20400;-85
2023/06/21 08:31:44;;;;;;;9.90;9.10;;;19.60;99.90;;;;;;5073011;28;20916;-85
2023/06/21 08:34:09;;;;;;;11.30;10.30;;;19.70;99.90;;;;;;5070815;28;20392;-85
2023/06/21 08:36:35;;;;;;;10.90;9.80;;;19.90;99.90;;;;;;5072507;28;20384;-84
2023/06/21 08:39:00;;;;;;;10.60;9.50;;;19.50;99.90;;;;;;5069305;28;20415;-81
2023/06/21 08:41:26;;;;;;;8.57;7.70;;;20.10;99.90;;;;;;5072237;28;20901;-83
2023/06/21 08:43:52;;;;;;;8.50;7.60;;;20.10;99.90;;;;;;5073454;28;20874;-81
2023/06/21 08:46:20;;;;;;;9.73;8.53;;;20.20;99.90;;;;;;5069437;28;20399;-81
2023/06/21 08:48:49;;;;;;;8.70;7.80;;;20.30;99.90;;;;;;5073876;28;20411;-84
2023/06/21 08:51:15;;;;;;;7.57;6.77;;;20.40;99.90;;;;;;5073797;28;20437;-82
2023/06/21 08:53:49;;;;;;;6.47;5.78;;;20.30;99.90;;;;;;5073338;28;20421;-83
2023/06/21 08:56:25;;;;;;;5.20;4.70;;;20.40;99.90;;;;;;5069530;28;20929;-80
2023/06/21 08:58:57;;;;;;;5.15;4.10;;;20.60;99.90;;;;;;5072600;28;20758;-80
2023/06/21 09:01:26;;;;;;;4.07;3.78;;;20.50;99.90;;;;;;5051391;28;20401;-82
2023/06/21 09:03:57;;;;;;;3.97;3.57;;;20.60;99.90;;;;;;5071730;28;20398;-81
2023/06/21 09:06:24;;;;;;;3.45;2.92;;;20.80;99.90;;;;;;5072476;28;20390;-80
2023/06/21 09:08:52;;;;;;;5.30;2.90;;;20.90;99.90;;;;;;5070701;28;20401;-80
2023/06/21 09:11:20;;;;;;;4.03;3.10;;;21.00;99.90;;;;;;5073098;28;20391;-82
2023/06/21 09:13:47;;;;;;;3.70;2.90;;;20.80;99.90;;;;;;5071725;28;20461;-81
2023/06/21 09:16:13;;;;;;;3.40;3.10;;;20.80;99.90;;;;;;5072797;28;20379;-82
2023/06/21 09:18:40;;;;;;;2.83;2.60;;;20.80;99.90;;;;;;5072928;28;20384;-81
2023/06/21 09:21:09;;;;;;;3.00;2.75;;;20.70;99.90;;;;;;5073128;28;20386;-82
2023/06/21 09:23:35;;;;;;;3.60;3.00;;;20.90;99.90;;;;;;5072978;28;20395;-82
2023/06/21 09:26:02;;;;;;;3.47;3.17;;;20.90;99.90;;;;;;5071184;28;20449;-82
2023/06/21 09:28:28;;;;;;;3.58;2.45;;;21.00;99.90;;;;;;5071463;28;20380;-82
2023/06/21 09:30:54;;;;;;;5.25;2.53;;;20.90;99.90;;;;;;5072284;28;20380;-82
2023/06/21 09:33:20;;;;;;;3.07;2.30;;;20.90;99.90;;;;;;5072517;28;20926;-81
2023/06/21 09:35:45;;;;;;;3.00;2.50;;;20.80;99.90;;;;;;5072327;28;20379;-80
2023/06/21 09:38:23;;;;;;;3.40;2.80;;;21.00;99.90;;;;;;5071238;28;20384;-78
2023/06/21 09:40:49;;;;;;;3.00;2.60;;;21.30;99.90;;;;;;5072354;28;20395;-78
2023/06/21 09:43:15;;;;;;;3.17;2.83;;;21.40;99.90;;;;;;5071527;28;20388;-79
2023/06/21 09:45:41;;;;;;;5.43;2.60;;;21.50;99.90;;;;;;5074185;28;20483;-80
2023/06/21 09:48:06;;;;;;;2.60;2.40;;;21.60;99.90;;;;;;5075862;28;20863;-79
2023/06/21 09:50:43;;;;;;;2.60;2.00;;;21.90;99.90;;;;;;5078331;28;20755;-78
2023/06/21 09:53:11;;;;;;;3.90;2.40;;;22.10;99.90;;;;;;5076479;28;20379;-79
2023/06/21 09:55:43;;;;;;;3.08;1.88;;;22.00;99.90;;;;;;5076819;28;20399;-80
2023/06/21 09:58:09;;;;;;;1.50;1.40;;;22.20;99.90;;;;;;5071486;28;20421;-80
2023/06/21 10:00:35;;;;;;;2.33;1.67;;;22.30;99.90;;;;;;5072256;28;20392;-81
2023/06/21 10:03:02;;;;;;;2.78;1.70;;;22.40;99.90;;;;;;5073730;28;20379;-82
2023/06/21 10:05:28;;;;;;;2.40;1.20;;;22.60;99.90;;;;;;5073198;28;20384;-80
2023/06/21 10:07:54;;;;;;;1.50;1.40;;;22.70;99.90;;;;;;5072591;28;20391;-82
2023/06/21 10:10:20;;;;;;;2.50;1.40;;;22.70;99.90;;;;;;5074227;28;20456;-82
2023/06/21 10:12:49;;;;;;;1.55;1.20;;;22.60;99.90;;;;;;5073701;28;20408;-82
2023/06/21 10:15:15;;;;;;;1.20;1.05;;;23.00;99.90;;;;;;5072982;28;20497;-82
2023/06/21 10:17:41;;;;;;;1.80;1.38;;;23.10;99.90;;;;;;5072706;28;20380;-80
2023/06/21 10:20:09;;;;;;;2.83;1.70;;;23.30;99.90;;;;;;5071197;28;20404;-81
2023/06/21 10:22:37;;;;;;;1.92;1.48;;;23.20;99.90;;;;;;5073277;28;20824;-81
2023/06/21 10:25:04;;;;;;;2.00;1.60;;;23.20;99.90;;;;;;5072280;28;20399;-82
2023/06/21 10:27:31;;;;;;;2.65;0.90;;;23.30;99.90;;;;;;5072565;28;20398;-82
2023/06/21 10:29:59;;;;;;;1.98;1.38;;;23.50;99.90;;;;;;5072900;28;20486;-80
2023/06/21 10:32:25;;;;;;;2.40;1.85;;;23.60;99.90;;;;;;5072135;28;20402;-80
2023/06/21 10:35:13;;;;;;;1.80;1.40;;;23.80;69.70;;;;;;5070814;28;20473;-81
2023/06/21 10:38:03;;;;;;;2.90;1.60;;;24.00;99.90;;;;;;5070048;28;20434;-80
2023/06/21 10:40:30;;;;;;;2.03;1.40;;;24.20;99.90;;;;;;5068675;28;20857;-78
2023/06/21 10:42:58;;;;;;;2.00;1.73;;;24.40;84.90;;;;;;5070316;28;20434;-80
2023/06/21 10:45:24;;;;;;;1.90;1.50;;;24.50;47.10;;;;;;5071638;28;20908;-79
2023/06/21 10:47:52;;;;;;;2.60;1.67;;;24.80;99.90;;;;;;5071173;28;20440;-79
2023/06/21 10:50:20;;;;;;;2.05;1.50;;;24.80;19.00;;;;;;5071225;28;20431;-80
2023/06/21 10:52:49;;;;;;;2.35;1.70;;;24.50;78.70;;;;;;5075585;28;20461;-80
2023/06/21 10:55:16;;;;;;;1.65;1.38;;;24.70;26.20;;;;;;5073960;28;20433;-81
2023/06/21 10:57:42;;;;;;;2.63;1.53;;;24.80;20.60;;;;;;5075568;28;20394;-81
2023/06/21 11:00:09;;;;;;;2.00;1.40;;;24.80;66.10;;;;;;5075276;28;20747;-80
2023/06/21 11:02:35;;;;;;;3.15;1.40;;;24.90;14.80;;;;;;5074717;28;20387;-80
2023/06/21 11:05:20;;;;;;;1.60;1.50;;;24.70;21.10;;;;;;5075142;28;20394;-80
2023/06/21 11:07:49;;;;;;;2.28;1.70;;;24.80;95.60;;;;;;5073257;28;20520;-80
2023/06/21 11:10:15;;;;;;;2.13;1.75;;;25.00;29.10;;;;;;5073942;28;20475;-81
2023/06/21 11:12:41;;;;;;;3.60;1.85;;;25.10;45.70;;;;;;5075287;28;20383;-81
2023/06/21 11:15:07;;;;;;;2.40;1.40;;;25.40;84.10;;;;;;5074129;28;20384;-80
2023/06/21 11:17:36;;;;;;;1.97;1.50;;;25.80;22.30;;;;;;5073223;28;20399;-81
2023/06/21 11:20:22;;;;;;;1.90;1.42;;;26.00;1.00;;;;;;5074267;28;20391;-81
2023/06/21 11:22:56;;;;;;;3.30;1.67;;;26.40;1.00;;;;;;5074013;28;20407;-81
2023/06/21 11:25:21;;;;;;;1.80;1.60;;;26.50;1.00;;;;;;5074001;28;20383;-78
2023/06/21 11:28:25;;;;;;;2.20;1.58;;;26.00;1.00;;;;;;5073744;28;20937;-80
2023/06/21 11:31:08;;;;;;;1.63;1.40;;;25.80;1.00;;;;;;5074378;28;20420;-80
2023/06/21 11:33:54;;;;;;;4.05;1.55;;;25.80;1.00;;;;;;5075389;28;20379;-81
2023/06/21 11:36:28;;;;;;;1.70;1.60;;;25.70;1.00;;;;;;5072559;28;20427;-81
2023/06/21 11:39:06;;;;;;;1.67;1.53;;;26.30;1.00;;;;;;5074405;28;20407;-81
2023/06/21 11:41:45;;;;;;;1.52;1.40;;;26.80;1.00;;;;;;5076540;28;21006;-81
2023/06/21 11:44:12;;;;;;;2.45;1.60;;;26.60;1.00;;;;;;5076854;28;20391;-81
2023/06/21 11:46:45;;;;;;;1.90;1.55;;;26.80;1.00;;;;;;5078351;28;20390;-80
2023/06/21 11:49:10;;;;;;;4.32;1.70;;;27.30;1.00;;;;;;5077772;28;20412;-80
2023/06/21 11:52:00;;;;;;;2.77;1.70;;;27.10;1.00;;;;;;5078552;28;20442;-80
2023/06/21 11:54:33;;;;;;;3.20;1.80;;;26.40;1.00;;;;;;5076621;28;20482;-79
2023/06/21 11:56:59;;;;;;;2.28;1.55;;;27.10;1.00;;;;;;5076273;28;20384;-79
2023/06/21 11:59:26;;;;;;;1.42;1.30;;;28.30;1.00;;;;;;5074169;28;20817;-79
2023/06/21 12:01:52;;;;;;;3.17;1.65;;;29.10;1.00;;;;;;5073525;28;20395;-79
2023/06/21 12:04:25;;;;;;;1.70;1.50;;;29.10;1.00;;;;;;5075487;28;20403;-80
2023/06/21 12:06:50;;;;;;;1.67;1.58;;;29.20;1.00;;;;;;5075792;28;20930;-80
2023/06/21 12:09:16;;;;;;;1.70;1.60;;;29.50;1.00;;;;;;5077597;28;20441;-80
2023/06/21 12:11:42;;;;;;;2.38;1.45;;;29.40;1.00;;;;;;5076968;28;20392;-80
2023/06/21 12:14:09;;;;;;;2.17;1.50;;;29.90;1.00;;;;;;5077467;28;20403;-81
2023/06/21 12:16:34;;;;;;;2.30;1.50;;;29.70;1.00;;;;;;5075601;28;20406;-81
2023/06/21 12:19:00;;;;;;;2.30;1.50;;;29.50;1.00;;;;;;5075917;28;20411;-80
2023/06/21 12:21:26;;;;;;;1.83;1.40;;;29.50;1.00;;;;;;5079956;28;20490;-80
2023/06/21 12:23:57;;;;;;;2.80;1.60;;;29.30;1.00;;;;;;5088635;28;20383;-80
2023/06/21 12:26:26;;;;;;;3.43;1.43;;;29.90;1.00;;;;;;5085171;28;20399;-82
2023/06/21 12:28:52;;;;;;;1.88;1.38;;;30.30;1.00;;;;;;5087436;28;20399;-81
2023/06/21 12:31:18;;;;;;;2.37;1.57;;;30.60;1.00;;;;;;5077723;28;20993;-80
2023/06/21 12:33:44;;;;;;;2.60;1.40;;;30.50;1.00;;;;;;5075890;28;20449;-81
2023/06/21 12:36:23;;;;;;;2.75;1.60;;;30.50;1.00;;;;;;5075465;28;20902;-80
2023/06/21 12:38:54;;;;;;;1.30;1.20;;;30.70;1.00;;;;;;5075944;28;20478;-80
2023/06/21 12:41:22;;;;;;;2.15;1.30;;;30.10;1.00;;;;;;5075674;28;20413;-80